WetterOnline ( https://www.wetteronline.de )

Wetter aktuell Cottbus

Aktuelles Wetter: Cottbus (70m)

6-stündlich | Neueste Meldungen
Ortszeit Temperatur Wetter
Sa, 03.12. 1:00 -1.1° C bedeckt
Fr, 02.12. 19:00 -0.4° C bedeckt
Fr, 02.12. 13:00 0.7° C bedeckt
Fr, 02.12. 7:00 1.2° C bedeckt
Fr, 02.12. 1:00 1.8° C bedeckt
Do, 01.12. 19:00 1.7° C bedeckt
Do, 01.12. 13:00 0.7° C bedeckt
Do, 01.12. 7:00 -0.2° C bedeckt
Ortszeit Temperatur Wetter
Sa, 03.12. 4:00 -1.5° C Schneegriesel
Sa, 03.12. 3:50 -1.5° C Schneegriesel
Sa, 03.12. 3:40 -1.5° C Schneegriesel
Sa, 03.12. 3:30 -1.3° C Schneegriesel
Sa, 03.12. 3:20 -1.3° C Schneegriesel
Sa, 03.12. 3:10 -1.3° C Schneegriesel
Sa, 03.12. 3:00 -1.2° C leichter Schneefall
Sa, 03.12. 2:30 -1.1° C bedeckt
Sa, 03.12. 2:00 -1.1° C bedeckt
Sa, 03.12. 1:30 -1.1° C bedeckt
Sa, 03.12. 1:00 -1.1° C bedeckt
Ortszeit Relative Feuchte Sichtweite
Sa, 03.12. 1:00 86% 6 km
Fr, 02.12. 19:00 82% 11 km
Fr, 02.12. 13:00 80% 12 km
Fr, 02.12. 7:00 82% 10 km
Fr, 02.12. 1:00 84% 10 km
Do, 01.12. 19:00 82% 9 km
Do, 01.12. 13:00 81% 11 km
Do, 01.12. 7:00 87% 7 km
Ortszeit Relative Feuchte Sichtweite
Sa, 03.12. 4:00 91% 4.1 km
Sa, 03.12. 3:50 91% -
Sa, 03.12. 3:40 89% -
Sa, 03.12. 3:30 89% 4.7 km
Sa, 03.12. 3:20 89% -
Sa, 03.12. 3:10 89% -
Sa, 03.12. 3:00 88% 5.0 km
Sa, 03.12. 2:30 85% 7 km
Sa, 03.12. 2:00 84% 9 km
Sa, 03.12. 1:30 86% 7 km
Sa, 03.12. 1:00 86% 6 km
Ortszeit Niederschlagsmenge Niederschlagsart
Sa, 03.12. 1:00 0.0 l/m2 in 6 Std. -
Fr, 02.12. 19:00 0.0 l/m2 in 12 Std. -
Fr, 02.12. 13:00 0.0 l/m2 in 6 Std. -
Fr, 02.12. 7:00 0.0 l/m2 in 12 Std. -
Fr, 02.12. 1:00 0.0 l/m2 in 6 Std. -
Do, 01.12. 19:00 0.0 l/m2 in 12 Std. -
Do, 01.12. 13:00 0.0 l/m2 in 6 Std. -
Do, 01.12. 7:00 0.0 l/m2 in 12 Std. -
Ortszeit Niederschlagsmenge Niederschlagsart
Sa, 03.12. 4:00 <0.05 l/m2 in 1 Std. Schnee, Regen
Sa, 03.12. 3:50 keine Meldung -
Sa, 03.12. 3:40 keine Meldung -
Sa, 03.12. 3:30 <0.05 l/m2 in 30 Min -
Sa, 03.12. 3:20 keine Meldung -
Sa, 03.12. 3:10 keine Meldung -
Sa, 03.12. 3:00 <0.05 l/m2 in 1 Std. Schnee
Sa, 03.12. 2:30 0.0 l/m2 in 30 Min -
Sa, 03.12. 2:00 0.0 l/m2 in 1 Std. -
Sa, 03.12. 1:30 0.0 l/m2 in 30 Min -
Sa, 03.12. 1:00 0.0 l/m2 in 1 Std. -
Ortszeit Stärke Spitze Richtung
km/h Bft. km/h Grad Sektor
Sa, 03.12. 1:00 14 3 32 70° O
Fr, 02.12. 19:00 15 3 35 70° O
Fr, 02.12. 13:00 13 3 30 80° O
Fr, 02.12. 7:00 11 2 26 80° O
Fr, 02.12. 1:00 13 3 20 60° NO
Do, 01.12. 19:00 9 2 19 60° NO
Do, 01.12. 13:00 7 2 22 90° O
Do, 01.12. 7:00 11 2 22 80° O
Ortszeit Stärke Spitze Richtung
km/h Bft. km/h Grad Sektor
Sa, 03.12. 4:00 14 3 25 70° O
Sa, 03.12. 3:50 14 3 - 70° O
Sa, 03.12. 3:40 14 3 - 70° O
Sa, 03.12. 3:30 13 3 22 70° O
Sa, 03.12. 3:20 13 3 - 70° O
Sa, 03.12. 3:10 11 2 - 70° O
Sa, 03.12. 3:00 11 2 25 70° O
Sa, 03.12. 2:30 15 3 26 70° O
Sa, 03.12. 2:00 14 3 25 80° O
Sa, 03.12. 1:30 13 3 26 80° O
Sa, 03.12. 1:00 14 3 29 70° O
Ortszeit Untergrenze Bedeckung Gattung
total tief tief mittel hoch
Sa, 03.12. 1:00 240 m 8/8 8/8 - - -
Fr, 02.12. 19:00 300 m 8/8 8/8 - - -
Fr, 02.12. 13:00 390 m 8/8 8/8 - - -
Fr, 02.12. 7:00 360 m 8/8 8/8 - - -
Fr, 02.12. 1:00 600 m 8/8 8/8 - - -
Do, 01.12. 19:00 540 m 8/8 8/8 - - -
Do, 01.12. 13:00 330 m 8/8 8/8 - - -
Do, 01.12. 7:00 210 m 8/8 8/8 - - -
Ortszeit Bedeckungsgrad in Achtel und Wolkenuntergrenze
Sa, 03.12. 4:00 8(150m)
Sa, 03.12. 3:50 8(150m)
Sa, 03.12. 3:40 8
Sa, 03.12. 3:30 8(180m)
Sa, 03.12. 3:20 8(180m)
Sa, 03.12. 3:10 8
Sa, 03.12. 3:00 8(210m)
Sa, 03.12. 2:30 8(270m)
Sa, 03.12. 2:00 8(240m)
Sa, 03.12. 1:30 8(210m)
Sa, 03.12. 1:00 8(240m)
Ortszeit Luftdruck NN (hPa) Tendenz (hPa in 3 Std.)
Sa, 03.12. 1:00 1026 - 0,3
Fr, 02.12. 19:00 1026 + 0,2
Fr, 02.12. 13:00 1026 - 0,5
Fr, 02.12. 7:00 1026 - 0,4
Fr, 02.12. 1:00 1027 - 0,5
Do, 01.12. 19:00 1028 - 0,2
Do, 01.12. 13:00 1029 - 0,7
Do, 01.12. 7:00 1029 + 0,3
Ortszeit Luftdruck NN (hPa) Tendenz (hPa in 3 Std.)
Sa, 03.12. 4:00 1026 - 0,5
Sa, 03.12. 3:50 1026 keine Meldung
Sa, 03.12. 3:40 1026 keine Meldung
Sa, 03.12. 3:30 1026 - 0,5
Sa, 03.12. 3:20 1026 keine Meldung
Sa, 03.12. 3:10 1026 keine Meldung
Sa, 03.12. 3:00 1026 - 0,4
Sa, 03.12. 2:30 1026 - 0,6
Sa, 03.12. 2:00 1026 - 0,6
Sa, 03.12. 1:30 1026 - 0,4
Sa, 03.12. 1:00 1026 - 0,3
Ortszeit Schneehöhe (cm)
Sa, 03.12. 1:00 0
Fr, 02.12. 19:00 0
Fr, 02.12. 13:00 0
Fr, 02.12. 7:00 0
Fr, 02.12. 1:00 0
Do, 01.12. 19:00 0
Do, 01.12. 13:00 0
Do, 01.12. 7:00 0
Ortszeit Schneehöhe (cm)
Sa, 03.12. 4:00 0
Sa, 03.12. 3:50 0
Sa, 03.12. 3:40 0
Sa, 03.12. 3:30 0
Sa, 03.12. 3:20 0
Sa, 03.12. 3:10 0
Sa, 03.12. 3:00 0
Sa, 03.12. 2:30 0
Sa, 03.12. 2:00 0
Sa, 03.12. 1:30 0
Sa, 03.12. 1:00 0
Link zu dieser Seite / Seite empfehlen

Das Wetter in ...